createdAt,value
2019-06-01T00:01:48.794Z,70.80
2019-06-01T00:04:17.591Z,70.80
2019-06-01T00:06:46.952Z,70.90
2019-06-01T00:09:15.764Z,71.10
2019-06-01T00:11:45.531Z,71.50
2019-06-01T00:14:14.251Z,71.50
2019-06-01T00:16:44.141Z,71.70
2019-06-01T00:19:12.935Z,71.80
2019-06-01T00:21:41.416Z,71.90
2019-06-01T00:24:10.055Z,72.10
2019-06-01T00:26:38.552Z,72.00
2019-06-01T00:29:07.189Z,72.10
2019-06-01T00:31:35.842Z,72.20
2019-06-01T00:34:04.465Z,72.30
2019-06-01T00:36:33.192Z,72.50
2019-06-01T00:39:01.821Z,72.50
2019-06-01T00:41:30.497Z,72.60
2019-06-01T00:43:59.191Z,72.60
2019-06-01T00:46:27.911Z,72.70
2019-06-01T00:48:56.475Z,72.80
2019-06-01T00:51:25.121Z,73.10
2019-06-01T00:53:53.728Z,73.20
2019-06-01T00:56:22.548Z,73.20
2019-06-01T00:58:51.945Z,73.30
2019-06-01T01:01:20.683Z,73.30
2019-06-01T01:03:50.203Z,73.40
2019-06-01T01:06:19.024Z,73.50
2019-06-01T01:08:49.000Z,73.80
2019-06-01T01:11:17.859Z,73.90
2019-06-01T01:13:47.183Z,73.90
2019-06-01T01:16:15.927Z,74.00
2019-06-01T01:18:45.622Z,74.30
2019-06-01T01:21:14.416Z,74.20
2019-06-01T01:23:43.041Z,74.30
2019-06-01T01:26:11.697Z,74.60
2019-06-01T01:28:40.318Z,74.60
2019-06-01T01:31:13.759Z,74.70
2019-06-01T01:33:39.620Z,74.80
2019-06-01T01:36:08.227Z,74.90
2019-06-01T01:38:36.831Z,75.10
2019-06-01T01:41:05.659Z,75.10
2019-06-01T01:43:34.286Z,75.30
2019-06-01T01:46:04.082Z,75.50
2019-06-01T01:48:32.735Z,75.60
2019-06-01T01:51:02.642Z,75.70
2019-06-01T01:53:31.624Z,76.30
2019-06-01T01:56:01.207Z,75.90
2019-06-01T01:58:30.023Z,75.60
2019-06-01T02:01:00.151Z,76.00
2019-06-01T02:03:29.103Z,77.30
2019-06-01T02:05:58.857Z,76.40
2019-06-01T02:08:27.900Z,76.50
2019-06-01T02:10:57.466Z,76.70
2019-06-01T02:13:26.114Z,76.90
2019-06-01T02:15:56.062Z,77.00
2019-06-01T02:18:24.923Z,77.20
2019-06-01T02:20:54.389Z,77.30
2019-06-01T02:23:23.039Z,77.40
2019-06-01T02:25:52.750Z,77.40
2019-06-01T02:28:21.567Z,77.60
2019-06-01T02:30:50.065Z,77.60
2019-06-01T02:33:18.644Z,77.70
2019-06-01T02:35:47.244Z,77.70
2019-06-01T02:38:15.839Z,77.80
2019-06-01T02:40:44.538Z,77.80
2019-06-01T02:43:13.338Z,77.70
2019-06-01T02:45:41.882Z,77.70
2019-06-01T02:48:10.685Z,77.90
2019-06-01T02:50:39.259Z,77.80
2019-06-01T02:53:07.875Z,77.80
2019-06-01T02:55:36.771Z,78.00
2019-06-01T02:58:06.713Z,78.00
2019-06-01T03:00:47.220Z,77.90
2019-06-01T03:03:16.413Z,77.90
2019-06-01T03:05:46.832Z,77.80
2019-06-01T03:08:17.017Z,78.50
2019-06-01T03:10:47.675Z,77.50
2019-06-01T03:13:19.054Z,77.70
2019-06-01T03:15:48.262Z,77.40
2019-06-01T03:18:18.677Z,77.40
2019-06-01T03:20:50.430Z,77.20
2019-06-01T03:23:22.062Z,77.10
2019-06-01T03:25:53.528Z,77.10
2019-06-01T03:28:24.831Z,77.20
2019-06-01T03:30:53.507Z,77.20
2019-06-01T03:33:22.126Z,77.40
2019-06-01T03:35:51.122Z,76.70
2019-06-01T03:38:19.911Z,77.30
2019-06-01T03:40:48.496Z,77.40
2019-06-01T03:43:17.300Z,77.50
2019-06-01T03:45:45.881Z,77.40
2019-06-01T03:48:14.746Z,77.30
2019-06-01T03:50:43.250Z,77.30
2019-06-01T03:53:12.178Z,77.40
2019-06-01T03:55:40.942Z,77.30
2019-06-01T03:58:09.556Z,77.40
2019-06-01T04:00:38.131Z,77.30
2019-06-01T04:03:07.189Z,77.40
2019-06-01T04:05:35.934Z,77.50
2019-06-01T04:08:05.595Z,77.30
2019-06-01T04:10:34.287Z,77.20
2019-06-01T04:13:03.519Z,77.10
2019-06-01T04:15:32.345Z,77.10
2019-06-01T04:18:01.924Z,77.20
2019-06-01T04:20:30.796Z,77.20
2019-06-01T04:22:59.442Z,77.00
2019-06-01T04:25:29.727Z,77.00
2019-06-01T04:27:58.354Z,76.80
2019-06-01T04:30:27.648Z,76.80
2019-06-01T04:32:56.327Z,76.90
2019-06-01T04:35:24.961Z,77.00
2019-06-01T04:37:53.674Z,77.00
2019-06-01T04:40:22.237Z,77.00
2019-06-01T04:42:50.958Z,77.00
2019-06-01T04:45:19.760Z,76.90
2019-06-01T04:47:48.405Z,76.80
2019-06-01T04:50:16.952Z,76.80
2019-06-01T04:52:45.527Z,76.90
2019-06-01T04:55:15.149Z,76.80
2019-06-01T04:57:43.819Z,76.80
2019-06-01T05:00:27.119Z,76.90
2019-06-01T05:02:44.091Z,77.00
2019-06-01T05:05:13.374Z,76.80
2019-06-01T05:07:42.440Z,76.90
2019-06-01T05:10:11.740Z,76.80
2019-06-01T05:12:40.550Z,76.40
2019-06-01T05:15:11.906Z,76.50
2019-06-01T05:17:40.847Z,75.60
2019-06-01T05:20:10.398Z,75.20
2019-06-01T05:22:39.192Z,74.90
2019-06-01T05:25:09.007Z,74.60
2019-06-01T05:27:37.850Z,74.20
2019-06-01T05:30:09.360Z,74.00
2019-06-01T05:32:38.376Z,73.60
2019-06-01T05:35:07.706Z,73.40
2019-06-01T05:37:36.569Z,73.20
2019-06-01T05:40:10.532Z,73.00
2019-06-01T05:42:39.270Z,73.00
2019-06-01T05:45:09.321Z,72.70
2019-06-01T05:47:38.102Z,72.60
2019-06-01T05:50:10.641Z,72.40
2019-06-01T05:52:39.455Z,72.40
2019-06-01T05:55:08.686Z,72.30
2019-06-01T05:57:37.300Z,72.30
2019-06-01T06:00:08.217Z,72.90
2019-06-01T06:02:37.596Z,72.00
2019-06-01T06:05:07.547Z,72.00
2019-06-01T06:07:36.873Z,71.90
2019-06-01T06:10:06.699Z,71.70
2019-06-01T06:12:35.389Z,71.40
2019-06-01T06:15:05.802Z,71.30
2019-06-01T06:17:34.374Z,71.30
2019-06-01T06:20:03.044Z,71.40
2019-06-01T06:22:31.600Z,71.90
2019-06-01T06:25:00.260Z,70.40
2019-06-01T06:27:28.887Z,70.30
2019-06-01T06:29:57.455Z,70.60
2019-06-01T06:32:26.152Z,70.20
2019-06-01T06:34:54.725Z,69.80
2019-06-01T06:37:23.888Z,69.50
2019-06-01T06:39:52.739Z,68.90
2019-06-01T06:42:22.273Z,68.60
2019-06-01T06:44:51.020Z,67.70
2019-06-01T06:47:20.841Z,67.10
2019-06-01T06:49:49.714Z,65.60
2019-06-01T06:52:19.424Z,64.40
2019-06-01T06:54:48.196Z,64.30
2019-06-01T06:57:17.914Z,63.60
2019-06-01T06:59:46.619Z,63.20
2019-06-01T07:02:15.263Z,63.20
2019-06-01T07:04:43.887Z,62.90
2019-06-01T07:07:12.540Z,62.60
2019-06-01T07:09:41.149Z,62.80
2019-06-01T07:12:09.779Z,63.10
2019-06-01T07:14:38.478Z,62.30
2019-06-01T07:17:07.276Z,62.20
2019-06-01T07:19:35.950Z,62.00
2019-06-01T07:22:04.747Z,61.50
2019-06-01T07:24:33.721Z,61.40
2019-06-01T07:27:02.338Z,61.40
2019-06-01T07:29:30.884Z,61.20
2019-06-01T07:31:59.459Z,61.00
2019-06-01T07:34:39.156Z,61.00
2019-06-01T07:36:58.303Z,60.60
2019-06-01T07:39:26.972Z,60.60
2019-06-01T07:41:55.646Z,60.40
2019-06-01T07:44:25.042Z,60.20
2019-06-01T07:46:53.687Z,60.00
2019-06-01T07:49:23.213Z,59.60
2019-06-01T07:51:52.182Z,59.30
2019-06-01T07:54:20.837Z,59.30
2019-06-01T07:56:49.518Z,59.30
2019-06-01T07:59:18.238Z,59.10
2019-06-01T08:01:46.768Z,58.90
2019-06-01T08:04:15.305Z,58.40
2019-06-01T08:06:47.064Z,58.40
2019-06-01T08:09:14.304Z,58.70
2019-06-01T08:11:42.854Z,58.10
2019-06-01T08:14:11.542Z,57.80
2019-06-01T08:16:40.215Z,57.60
2019-06-01T08:19:08.964Z,57.40
2019-06-01T08:21:37.676Z,57.10
2019-06-01T08:24:06.359Z,56.80
2019-06-01T08:26:34.962Z,56.60
2019-06-01T08:29:03.584Z,56.70
2019-06-01T08:31:33.541Z,56.50
2019-06-01T08:34:02.422Z,56.10
2019-06-01T08:36:31.674Z,55.50
2019-06-01T08:39:00.432Z,55.10
2019-06-01T08:41:29.844Z,55.60
2019-06-01T08:43:58.600Z,55.40
2019-06-01T08:46:27.689Z,54.70
2019-06-01T08:48:56.403Z,54.80
2019-06-01T08:51:26.551Z,54.90
2019-06-01T08:53:55.561Z,54.70
2019-06-01T08:56:24.302Z,54.70
2019-06-01T08:58:53.030Z,54.70
2019-06-01T09:01:21.779Z,54.80
2019-06-01T09:03:50.475Z,54.90
2019-06-01T09:06:19.045Z,54.70
2019-06-01T09:08:47.911Z,54.70
2019-06-01T09:11:16.444Z,54.60
2019-06-01T09:13:45.134Z,54.70
2019-06-01T09:16:13.816Z,54.30
2019-06-01T09:18:42.789Z,54.10
2019-06-01T09:21:11.651Z,54.00
2019-06-01T09:23:40.360Z,54.00
2019-06-01T09:26:09.213Z,53.90
2019-06-01T09:28:37.757Z,53.20
2019-06-01T09:31:06.337Z,53.00
2019-06-01T09:33:36.433Z,53.10
2019-06-01T09:36:05.665Z,52.60
2019-06-01T09:38:35.779Z,52.50
2019-06-01T09:41:04.866Z,52.00
2019-06-01T09:43:33.548Z,51.70
2019-06-01T09:46:02.242Z,51.30
2019-06-01T09:48:31.429Z,51.10
2019-06-01T09:51:00.098Z,51.20
2019-06-01T09:53:29.382Z,51.70
2019-06-01T09:55:59.008Z,51.30
2019-06-01T09:58:28.160Z,51.70
2019-06-01T10:00:57.019Z,51.70
2019-06-01T10:03:25.705Z,51.30
2019-06-01T10:06:01.893Z,51.30
2019-06-01T10:08:24.694Z,50.60
2019-06-01T10:10:53.411Z,50.10
2019-06-01T10:13:21.975Z,50.70
2019-06-01T10:15:50.570Z,49.90
2019-06-01T10:18:19.272Z,49.70
2019-06-01T10:20:48.026Z,49.90
2019-06-01T10:23:16.750Z,49.90
2019-06-01T10:25:45.573Z,49.90
2019-06-01T10:28:14.196Z,49.50
2019-06-01T10:30:42.825Z,49.50
2019-06-01T10:33:11.656Z,50.30
2019-06-01T10:35:40.256Z,50.20
2019-06-01T10:38:08.844Z,49.70
2019-06-01T10:40:37.653Z,48.80
2019-06-01T10:43:06.258Z,47.80
2019-06-01T10:45:35.759Z,47.30
2019-06-01T10:48:04.845Z,47.20
2019-06-01T10:50:34.845Z,47.70
2019-06-01T10:53:03.947Z,47.40
2019-06-01T10:55:32.626Z,47.30
2019-06-01T10:58:01.465Z,47.00
2019-06-01T11:00:39.664Z,46.00
2019-06-01T11:03:00.528Z,46.30
2019-06-01T11:05:29.080Z,46.30
2019-06-01T11:07:57.674Z,46.70
2019-06-01T11:10:26.357Z,46.90
2019-06-01T11:12:55.140Z,46.30
2019-06-01T11:15:23.907Z,46.10
2019-06-01T11:17:52.927Z,46.00
2019-06-01T11:20:21.630Z,46.20
2019-06-01T11:22:50.446Z,46.00
2019-06-01T11:25:19.149Z,46.30
2019-06-01T11:27:47.713Z,45.40
2019-06-01T11:30:16.535Z,45.70
2019-06-01T11:32:45.277Z,45.00
2019-06-01T11:35:14.806Z,45.20
2019-06-01T11:37:44.437Z,45.20
2019-06-01T11:40:13.584Z,44.70
2019-06-01T11:42:42.944Z,44.60
2019-06-01T11:45:12.291Z,44.40
2019-06-01T11:47:41.068Z,43.70
2019-06-01T11:50:10.321Z,43.50
2019-06-01T11:52:39.246Z,43.20
2019-06-01T11:55:08.982Z,42.60
2019-06-01T11:57:37.771Z,42.80
2019-06-01T12:00:11.415Z,43.30
2019-06-01T12:02:40.020Z,42.50
2019-06-01T12:05:09.744Z,42.20
2019-06-01T12:07:39.719Z,42.00
2019-06-01T12:10:09.286Z,42.40
2019-06-01T12:12:38.367Z,41.60
2019-06-01T12:15:07.832Z,41.40
2019-06-01T12:17:36.607Z,39.90
2019-06-01T12:20:08.953Z,38.10
2019-06-01T12:22:38.696Z,36.30
2019-06-01T12:25:08.385Z,33.00
2019-06-01T12:27:37.314Z,31.30
2019-06-01T12:30:09.418Z,29.80
2019-06-01T12:32:38.075Z,28.10
2019-06-01T12:35:10.109Z,26.80
2019-06-01T12:37:58.401Z,26.00
2019-06-01T12:40:09.654Z,25.60
2019-06-01T12:42:39.711Z,25.10
2019-06-01T12:45:10.443Z,24.70
2019-06-01T12:47:39.918Z,24.10
2019-06-01T12:50:09.068Z,23.80
2019-06-01T12:52:37.890Z,22.50
2019-06-01T12:55:06.705Z,21.30
2019-06-01T12:57:35.411Z,20.60
2019-06-01T13:00:05.907Z,19.40
2019-06-01T13:02:34.731Z,19.60
2019-06-01T13:05:04.732Z,18.70
2019-06-01T13:07:33.533Z,18.90
2019-06-01T13:10:02.383Z,18.40
2019-06-01T13:12:31.068Z,18.40
2019-06-01T13:14:59.718Z,18.50
2019-06-01T13:17:28.367Z,18.40
2019-06-01T13:19:56.984Z,17.40
2019-06-01T13:22:25.708Z,16.90
2019-06-01T13:24:54.378Z,16.80
2019-06-01T13:27:23.037Z,15.80
2019-06-01T13:29:52.286Z,16.30
2019-06-01T13:32:21.014Z,16.70
2019-06-01T13:34:49.691Z,15.90
2019-06-01T13:37:18.372Z,15.80
2019-06-01T13:39:53.827Z,15.50
2019-06-01T13:42:17.177Z,15.40
2019-06-01T13:44:45.707Z,15.70
2019-06-01T13:47:14.255Z,15.90
2019-06-01T13:49:44.703Z,16.00
2019-06-01T13:52:13.195Z,16.00
2019-06-01T13:54:41.871Z,15.90
2019-06-01T13:57:10.514Z,15.70
2019-06-01T13:59:39.121Z,15.10
2019-06-01T14:02:08.315Z,15.10
2019-06-01T14:04:36.909Z,14.90
2019-06-01T14:07:06.026Z,15.60
2019-06-01T14:09:34.764Z,15.90
2019-06-01T14:12:03.955Z,16.60
2019-06-01T14:14:32.516Z,17.40
2019-06-01T14:17:01.109Z,18.30
2019-06-01T14:19:29.822Z,19.10
2019-06-01T14:21:58.357Z,19.10
2019-06-01T14:24:27.024Z,19.80
2019-06-01T14:26:56.309Z,20.60
2019-06-01T14:29:25.283Z,21.30
2019-06-01T14:31:55.410Z,21.70
2019-06-01T14:34:24.063Z,22.20
2019-06-01T14:36:52.787Z,22.90
2019-06-01T14:39:21.683Z,23.90
2019-06-01T14:41:50.992Z,24.80
2019-06-01T14:44:19.690Z,25.00
2019-06-01T14:46:55.013Z,25.90
2019-06-01T14:49:18.686Z,26.20
2019-06-01T14:51:47.561Z,26.50
2019-06-01T14:54:16.371Z,26.80
2019-06-01T14:56:45.009Z,26.90
2019-06-01T14:59:13.577Z,26.90
2019-06-01T15:01:42.116Z,26.70
2019-06-01T15:04:11.137Z,26.60
2019-06-01T15:06:39.835Z,27.40
2019-06-01T15:09:17.547Z,27.10
2019-06-01T15:11:39.767Z,26.80
2019-06-01T15:14:08.814Z,26.50
2019-06-01T15:16:37.438Z,26.80
2019-06-01T15:19:06.134Z,27.50
2019-06-01T15:21:34.890Z,27.90
2019-06-01T15:24:03.685Z,28.60
2019-06-01T15:26:32.331Z,28.40
2019-06-01T15:29:00.872Z,28.90
2019-06-01T15:31:29.406Z,29.50
2019-06-01T15:33:57.977Z,30.00
2019-06-01T15:36:26.616Z,30.60
2019-06-01T15:38:55.609Z,31.10
2019-06-01T15:41:24.238Z,31.20
2019-06-01T15:43:52.944Z,31.40
2019-06-01T15:46:21.537Z,31.80
2019-06-01T15:48:51.554Z,31.70
2019-06-01T15:51:20.443Z,32.00
2019-06-01T15:53:49.005Z,32.40
2019-06-01T15:56:17.703Z,33.20
2019-06-01T15:58:52.894Z,33.00
2019-06-01T16:01:16.656Z,32.50
2019-06-01T16:03:45.313Z,32.40
2019-06-01T16:06:14.424Z,32.60
2019-06-01T16:08:43.080Z,32.80
2019-06-01T16:11:11.893Z,32.60
2019-06-01T16:13:40.566Z,33.30
2019-06-01T16:16:09.224Z,33.70
2019-06-01T16:18:37.930Z,33.70
2019-06-01T16:21:06.579Z,33.80
2019-06-01T16:23:49.562Z,33.60
2019-06-01T16:26:15.459Z,33.30
2019-06-01T16:28:35.744Z,34.10
2019-06-01T16:31:04.844Z,34.20
2019-06-01T16:33:33.539Z,33.90
2019-06-01T16:36:03.394Z,34.00
2019-06-01T16:38:32.606Z,34.00
2019-06-01T16:41:01.411Z,34.60
2019-06-01T16:43:30.203Z,34.70
2019-06-01T16:45:59.667Z,34.60
2019-06-01T16:48:28.576Z,34.70
2019-06-01T16:50:57.626Z,34.90
2019-06-01T16:53:26.357Z,34.90
2019-06-01T16:55:55.833Z,35.00
2019-06-01T16:58:24.638Z,35.00
2019-06-01T17:00:53.390Z,35.10
2019-06-01T17:03:22.137Z,35.60
2019-06-01T17:05:50.830Z,35.40
2019-06-01T17:08:19.845Z,35.50
2019-06-01T17:10:48.775Z,35.70
2019-06-01T17:13:17.505Z,35.80
2019-06-01T17:15:46.121Z,35.70
2019-06-01T17:18:14.793Z,35.90
2019-06-01T17:20:53.541Z,36.20
2019-06-01T17:23:27.363Z,36.30
2019-06-01T17:25:52.652Z,36.50
2019-06-01T17:28:21.653Z,36.40
2019-06-01T17:30:50.429Z,36.70
2019-06-01T17:33:19.318Z,37.10
2019-06-01T17:35:47.988Z,36.70
2019-06-01T17:38:16.700Z,37.00
2019-06-01T17:40:45.452Z,37.00
2019-06-01T17:43:14.470Z,37.10
2019-06-01T17:45:43.313Z,37.50
2019-06-01T17:48:24.740Z,37.60
2019-06-01T17:50:42.458Z,37.40
2019-06-01T17:53:11.133Z,37.30
2019-06-01T17:55:40.175Z,37.50
2019-06-01T17:58:10.085Z,37.70
2019-06-01T18:00:40.119Z,38.10
2019-06-01T18:03:10.112Z,38.30
2019-06-01T18:05:39.024Z,38.70
2019-06-01T18:08:08.110Z,39.00
2019-06-01T18:10:52.459Z,39.40
2019-06-01T18:13:08.623Z,39.30
2019-06-01T18:15:37.769Z,39.30
2019-06-01T18:18:08.568Z,39.70
2019-06-01T18:20:38.066Z,40.00
2019-06-01T18:23:08.302Z,40.30
2019-06-01T18:25:37.086Z,40.60
2019-06-01T18:28:07.028Z,40.90
2019-06-01T18:30:36.018Z,41.40
2019-06-01T18:33:05.184Z,41.60
2019-06-01T18:35:33.932Z,41.80
2019-06-01T18:38:03.713Z,42.00
2019-06-01T18:40:33.990Z,42.20
2019-06-01T18:43:06.114Z,42.60
2019-06-01T18:45:35.906Z,43.40
2019-06-01T18:48:06.115Z,43.90
2019-06-01T18:50:35.702Z,43.90
2019-06-01T18:53:06.057Z,44.50
2019-06-01T18:55:35.784Z,45.40
2019-06-01T18:58:06.323Z,46.20
2019-06-01T19:00:39.213Z,46.80
2019-06-01T19:03:06.997Z,47.40
2019-06-01T19:05:36.048Z,48.00
2019-06-01T19:08:05.180Z,48.30
2019-06-01T19:10:34.264Z,48.70
2019-06-01T19:13:03.095Z,49.00
2019-06-01T19:15:31.997Z,49.20
2019-06-01T19:18:00.692Z,49.70
2019-06-01T19:20:33.044Z,49.80
2019-06-01T19:23:00.169Z,49.90
2019-06-01T19:25:29.176Z,50.00
2019-06-01T19:27:57.854Z,50.40
2019-06-01T19:30:38.205Z,51.20
2019-06-01T19:33:10.979Z,50.90
2019-06-01T19:35:39.125Z,51.10
2019-06-01T19:38:08.955Z,51.30
2019-06-01T19:40:39.753Z,51.50
2019-06-01T19:43:09.396Z,51.70
2019-06-01T19:45:38.279Z,51.80
2019-06-01T19:48:08.328Z,52.00
2019-06-01T19:50:37.087Z,52.20
2019-06-01T19:53:06.768Z,52.30
2019-06-01T19:55:35.459Z,52.60
2019-06-01T19:58:04.279Z,52.70
2019-06-01T20:00:33.105Z,53.00
2019-06-01T20:03:02.024Z,53.20
2019-06-01T20:05:30.958Z,53.10
2019-06-01T20:07:59.658Z,53.10
2019-06-01T20:10:28.337Z,53.20
2019-06-01T20:12:57.000Z,53.30
2019-06-01T20:15:25.721Z,53.50
2019-06-01T20:17:54.397Z,53.70
2019-06-01T20:20:23.206Z,53.80
2019-06-01T20:22:52.119Z,54.00
2019-06-01T20:25:21.761Z,54.30
2019-06-01T20:27:50.555Z,54.50
2019-06-01T20:30:19.930Z,54.60
2019-06-01T20:32:48.790Z,54.60
2019-06-01T20:35:18.074Z,54.50
2019-06-01T20:37:46.922Z,54.50
2019-06-01T20:40:16.269Z,54.50
2019-06-01T20:42:45.001Z,54.70
2019-06-01T20:45:14.554Z,54.50
2019-06-01T20:47:43.410Z,54.60
2019-06-01T20:50:12.685Z,54.90
2019-06-01T20:52:41.425Z,55.70
2019-06-01T20:55:11.324Z,55.10
2019-06-01T20:57:39.864Z,55.50
2019-06-01T21:00:10.194Z,55.60
2019-06-01T21:02:38.863Z,55.70
2019-06-01T21:05:08.568Z,55.80
2019-06-01T21:07:37.331Z,55.90
2019-06-01T21:10:10.725Z,55.80
2019-06-01T21:12:45.387Z,56.10
2019-06-01T21:15:11.488Z,56.20
2019-06-01T21:17:40.209Z,56.30
2019-06-01T21:20:10.114Z,56.40
2019-06-01T21:22:39.328Z,56.50
2019-06-01T21:25:08.316Z,56.70
2019-06-01T21:27:37.054Z,56.90
2019-06-01T21:30:07.671Z,56.80
2019-06-01T21:32:36.387Z,56.90
2019-06-01T21:35:06.341Z,57.10
2019-06-01T21:37:35.003Z,57.30
2019-06-01T21:40:05.349Z,57.40
2019-06-01T21:42:38.297Z,57.70
2019-06-01T21:45:07.391Z,57.70
2019-06-01T21:47:36.189Z,57.90
2019-06-01T21:50:08.286Z,57.80
2019-06-01T21:52:37.072Z,58.00
2019-06-01T21:55:08.656Z,58.00
2019-06-01T21:57:37.322Z,58.00
2019-06-01T22:00:16.421Z,58.30
2019-06-01T22:02:45.233Z,58.40
2019-06-01T22:05:13.917Z,58.60
2019-06-01T22:07:42.864Z,58.80
2019-06-01T22:10:11.773Z,58.80
2019-06-01T22:12:40.431Z,58.80
2019-06-01T22:15:09.139Z,58.90
2019-06-01T22:17:37.853Z,58.80
2019-06-01T22:20:06.974Z,58.90
2019-06-01T22:22:35.625Z,59.00
2019-06-01T22:25:05.956Z,59.10
2019-06-01T22:27:34.572Z,59.30
2019-06-01T22:30:03.560Z,59.50
2019-06-01T22:32:32.220Z,59.70
2019-06-01T22:35:00.975Z,59.90
2019-06-01T22:37:29.711Z,60.10
2019-06-01T22:39:58.422Z,60.40
2019-06-01T22:42:28.380Z,60.80
2019-06-01T22:44:57.136Z,61.10
2019-06-01T22:47:26.644Z,61.40
2019-06-01T22:49:55.484Z,61.50
2019-06-01T22:52:24.976Z,61.50
2019-06-01T22:54:53.895Z,61.60
2019-06-01T22:57:22.549Z,61.60
2019-06-01T22:59:51.239Z,62.00
2019-06-01T23:02:19.934Z,62.30
2019-06-01T23:04:48.888Z,62.50
2019-06-01T23:07:17.367Z,62.70
2019-06-01T23:09:46.337Z,63.00
2019-06-01T23:12:14.954Z,63.10
2019-06-01T23:14:43.676Z,63.30
2019-06-01T23:17:12.223Z,63.40
2019-06-01T23:19:40.788Z,63.40
2019-06-01T23:22:09.563Z,63.60
2019-06-01T23:24:38.306Z,63.70
2019-06-01T23:27:06.920Z,63.70
2019-06-01T23:29:35.506Z,64.30
2019-06-01T23:32:04.258Z,65.10
2019-06-01T23:34:32.900Z,64.40
2019-06-01T23:37:01.523Z,64.60
2019-06-01T23:39:30.760Z,65.10
2019-06-01T23:41:59.522Z,65.40
2019-06-01T23:44:31.675Z,65.70
2019-06-01T23:46:58.223Z,65.70
2019-06-01T23:49:27.193Z,65.50
2019-06-01T23:51:55.927Z,65.20
2019-06-01T23:54:25.527Z,65.30
2019-06-01T23:56:54.314Z,65.50
2019-06-01T23:59:24.059Z,65.70
